Wetterdaten: Woche 19.05.08 - 25.05.08 (KW21)
Datum Zeit Temperatur Luftfeuchte Luftdruck Niederschlag Wind Richtung Sonnenschein Solar Taupunkt Windchill Windben
19.05.2008 00:00 11.6 C 99 % 1008.6 hPa 1.0 l/m 0.2 km/h (0 Bft) S-SO 0.00 h 0 W/m 11.4 C 11.6 C 0.5 km/h (0 Bft)
19.05.2008 01:00 11.2 C 98 % 1008.3 hPa 0.0 l/m 0.7 km/h (0 Bft) S-SO 0.00 h 0 W/m 10.9 C 11.2 C 1.7 km/h (1 Bft)
19.05.2008 02:00 11.1 C 99 % 1008.3 hPa 0.0 l/m 0.5 km/h (0 Bft) S-SO 0.00 h 0 W/m 10.9 C 11.1 C 0.9 km/h (0 Bft)
19.05.2008 03:00 11.0 C 99 % 1008.0 hPa 0.0 l/m 0.3 km/h (0 Bft) S-SO 0.00 h 0 W/m 10.8 C 11.0 C 0.9 km/h (0 Bft)
19.05.2008 04:00 11.0 C 99 % 1008.1 hPa 0.0 l/m 0.2 km/h (0 Bft) S-SO 0.00 h 0 W/m 10.9 C 11.0 C 0.6 km/h (0 Bft)
19.05.2008 05:00 10.9 C 98 % 1007.9 hPa 0.0 l/m 0.4 km/h (0 Bft) S-SO 0.00 h 6 W/m 10.6 C 10.9 C 1.2 km/h (1 Bft)
19.05.2008 06:00 11.1 C 99 % 1008.0 hPa 0.0 l/m 0.0 km/h (0 Bft) N 0.00 h 19 W/m 11.0 C 11.1 C 0.0 km/h (0 Bft)
19.05.2008 07:00 11.4 C 98 % 1008.3 hPa 0.0 l/m 0.0 km/h (0 Bft) N 0.00 h 57 W/m 11.2 C 11.4 C 0.0 km/h (0 Bft)
19.05.2008 08:00 12.1 C 97 % 1008.3 hPa 0.0 l/m 0.4 km/h (0 Bft) S-SO 0.00 h 147 W/m 11.7 C 12.1 C 1.1 km/h (1 Bft)
19.05.2008 09:00 13.2 C 90 % 1008.3 hPa 0.0 l/m 1.7 km/h (1 Bft) N 0.05 h 248 W/m 11.6 C 13.2 C 3.8 km/h (1 Bft)
19.05.2008 10:00 14.2 C 83 % 1008.1 hPa 0.0 l/m 3.1 km/h (1 Bft) O-SO 0.40 h 312 W/m 11.3 C 14.2 C 6.2 km/h (2 Bft)
19.05.2008 11:00 14.6 C 80 % 1008.2 hPa 0.2 l/m 3.9 km/h (1 Bft) O-SO 0.03 h 271 W/m 11.2 C 14.6 C 7.4 km/h (2 Bft)
19.05.2008 12:00 14.0 C 81 % 1008.5 hPa 0.2 l/m 6.5 km/h (2 Bft) O-SO 0.10 h 203 W/m 10.8 C 14.0 C 12.2 km/h (2 Bft)
19.05.2008 13:00 13.8 C 88 % 1008.7 hPa 0.4 l/m 2.1 km/h (1 Bft) N-NO 0.00 h 280 W/m 11.8 C 13.8 C 5.1 km/h (1 Bft)
19.05.2008 14:00 15.9 C 79 % 1008.1 hPa 0.0 l/m 2.6 km/h (1 Bft) NO 0.47 h 560 W/m 12.2 C 15.9 C 5.4 km/h (1 Bft)
19.05.2008 15:00 17.4 C 67 % 1007.5 hPa 0.0 l/m 7.2 km/h (2 Bft) NO 0.70 h 562 W/m 11.2 C 17.4 C 13.8 km/h (3 Bft)
19.05.2008 16:00 16.7 C 67 % 1007.2 hPa 0.0 l/m 4.7 km/h (1 Bft) N-NO 0.12 h 166 W/m 10.5 C 16.7 C 9.7 km/h (2 Bft)
19.05.2008 17:00 16.2 C 69 % 1007.3 hPa 0.0 l/m 5.7 km/h (1 Bft) N 0.00 h 195 W/m 10.6 C 16.2 C 10.5 km/h (2 Bft)
19.05.2008 18:00 15.9 C 70 % 1007.2 hPa 0.0 l/m 6.2 km/h (2 Bft) N-NO 0.00 h 133 W/m 10.4 C 15.9 C 12.1 km/h (2 Bft)
19.05.2008 19:00 15.0 C 71 % 1007.6 hPa 0.0 l/m 6.4 km/h (2 Bft) N 0.00 h 57 W/m 9.9 C 15.0 C 12.3 km/h (3 Bft)
19.05.2008 20:00 14.2 C 74 % 1008.0 hPa 0.0 l/m 5.2 km/h (1 Bft) N-NO 0.00 h 13 W/m 9.7 C 14.2 C 10.2 km/h (2 Bft)
19.05.2008 21:00 13.8 C 75 % 1008.4 hPa 0.0 l/m 5.1 km/h (1 Bft) N 0.00 h 0 W/m 9.4 C 13.8 C 9.9 km/h (2 Bft)
19.05.2008 22:00 13.5 C 75 % 1008.7 hPa 0.0 l/m 5.9 km/h (2 Bft) N-NO 0.00 h 0 W/m 9.2 C 13.5 C 11.9 km/h (2 Bft)
19.05.2008 23:00 13.3 C 76 % 1008.6 hPa 0.0 l/m 3.7 km/h (1 Bft) NO 0.00 h 0 W/m 9.1 C 13.3 C 8.2 km/h (2 Bft)
20.05.2008 00:00 13.0 C 77 % 1008.6 hPa 0.0 l/m 1.3 km/h (1 Bft) O 0.00 h 0 W/m 9.0 C 13.0 C 3.1 km/h (1 Bft)
20.05.2008 01:00 12.7 C 77 % 1008.3 hPa 0.0 l/m 1.9 km/h (1 Bft) NO 0.00 h 0 W/m 8.9 C 12.7 C 4.7 km/h (1 Bft)
20.05.2008 02:00 12.4 C 78 % 1007.6 hPa 0.0 l/m 3.6 km/h (1 Bft) NO 0.00 h 0 W/m 8.7 C 12.4 C 7.7 km/h (2 Bft)
20.05.2008 03:00 11.9 C 81 % 1007.2 hPa 0.0 l/m 1.7 km/h (1 Bft) N 0.00 h 0 W/m 8.6 C 11.9 C 3.9 km/h (1 Bft)
20.05.2008 04:00 12.2 C 80 % 1007.1 hPa 0.0 l/m 4.4 km/h (1 Bft) N 0.00 h 0 W/m 8.8 C 12.2 C 8.3 km/h (2 Bft)
20.05.2008 05:00 12.4 C 79 % 1007.1 hPa 0.0 l/m 5.9 km/h (2 Bft) N 0.00 h 6 W/m 8.8 C 12.4 C 10.4 km/h (2 Bft)
20.05.2008 06:00 12.5 C 77 % 1007.2 hPa 0.0 l/m 4.8 km/h (1 Bft) N 0.00 h 30 W/m 8.6 C 12.5 C 9.4 km/h (2 Bft)
20.05.2008 07:00 12.4 C 76 % 1007.7 hPa 0.0 l/m 5.2 km/h (1 Bft) N-NO 0.05 h 80 W/m 8.2 C 12.4 C 11.1 km/h (2 Bft)
20.05.2008 08:00 13.1 C 73 % 1007.8 hPa 0.0 l/m 4.7 km/h (1 Bft) NO 0.02 h 147 W/m 8.3 C 13.1 C 9.6 km/h (2 Bft)
20.05.2008 09:00 13.9 C 69 % 1008.1 hPa 0.0 l/m 7.1 km/h (2 Bft) N-NO 0.28 h 299 W/m 8.2 C 13.9 C 14.5 km/h (3 Bft)
20.05.2008 10:00 14.9 C 64 % 1008.3 hPa 0.0 l/m 7.3 km/h (2 Bft) N-NO 0.83 h 503 W/m 8.1 C 14.9 C 14.5 km/h (3 Bft)
20.05.2008 11:00 15.2 C 61 % 1008.7 hPa 0.0 l/m 8.1 km/h (2 Bft) O-SO 0.23 h 462 W/m 7.7 C 15.2 C 16.7 km/h (3 Bft)
20.05.2008 12:00 15.8 C 58 % 1008.7 hPa 0.0 l/m 6.7 km/h (2 Bft) O-SO 0.18 h 454 W/m 7.6 C 15.8 C 14.4 km/h (3 Bft)
20.05.2008 13:00 15.7 C 58 % 1008.8 hPa 0.0 l/m 7.9 km/h (2 Bft) O 0.32 h 408 W/m 7.4 C 15.7 C 16.4 km/h (3 Bft)
20.05.2008 14:00 16.1 C 56 % 1008.8 hPa 0.0 l/m 7.2 km/h (2 Bft) N-NO 0.43 h 410 W/m 7.5 C 16.1 C 14.7 km/h (3 Bft)
20.05.2008 15:00 15.5 C 58 % 1009.1 hPa 0.0 l/m 6.1 km/h (2 Bft) NO 0.15 h 249 W/m 7.1 C 15.5 C 12.3 km/h (3 Bft)
20.05.2008 16:00 15.1 C 58 % 1009.4 hPa 0.0 l/m 6.6 km/h (2 Bft) O-SO 0.00 h 132 W/m 6.8 C 15.1 C 12.1 km/h (2 Bft)
20.05.2008 17:00 14.8 C 60 % 1009.8 hPa 0.0 l/m 2.2 km/h (1 Bft) O 0.00 h 97 W/m 7.0 C 14.8 C 5.5 km/h (1 Bft)
20.05.2008 18:00 14.2 C 60 % 1010.2 hPa 0.0 l/m 2.8 km/h (1 Bft) O 0.00 h 25 W/m 6.4 C 14.2 C 6.1 km/h (2 Bft)
20.05.2008 19:00 13.6 C 64 % 1010.7 hPa 0.0 l/m 3.9 km/h (1 Bft) O-SO 0.00 h 39 W/m 7.0 C 13.6 C 7.1 km/h (2 Bft)
20.05.2008 20:00 13.0 C 67 % 1011.2 hPa 0.0 l/m 5.4 km/h (1 Bft) O-SO 0.00 h 19 W/m 7.1 C 13.0 C 9.9 km/h (2 Bft)
20.05.2008 21:00 12.4 C 69 % 1011.8 hPa 0.0 l/m 5.6 km/h (1 Bft) O-SO 0.00 h 5 W/m 6.9 C 12.4 C 11.1 km/h (2 Bft)
20.05.2008 22:00 11.9 C 67 % 1012.3 hPa 0.0 l/m 2.6 km/h (1 Bft) O-SO 0.00 h 0 W/m 6.0 C 11.9 C 6.1 km/h (2 Bft)
20.05.2008 23:00 11.6 C 64 % 1012.3 hPa 0.0 l/m 4.7 km/h (1 Bft) O-SO 0.00 h 0 W/m 5.1 C 11.6 C 10.0 km/h (2 Bft)
21.05.2008 00:00 11.2 C 67 % 1012.2 hPa 0.0 l/m 2.7 km/h (1 Bft) NO 0.00 h 0 W/m 5.3 C 11.2 C 6.4 km/h (2 Bft)
21.05.2008 01:00 10.8 C 70 % 1012.1 hPa 0.0 l/m 2.6 km/h (1 Bft) NO 0.00 h 0 W/m 5.5 C 10.8 C 6.0 km/h (2 Bft)
21.05.2008 02:00 10.0 C 75 % 1011.9 hPa 0.0 l/m 2.5 km/h (1 Bft) N-NO 0.00 h 0 W/m 5.7 C 10.0 C 5.7 km/h (1 Bft)
21.05.2008 03:00 10.0 C 75 % 1011.8 hPa 0.0 l/m 1.8 km/h (1 Bft) N-NO 0.00 h 0 W/m 5.8 C 10.0 C 4.3 km/h (1 Bft)
21.05.2008 04:00 9.9 C 74 % 1011.6 hPa 0.0 l/m 0.8 km/h (0 Bft) NO 0.00 h 0 W/m 5.6 C 9.9 C 2.4 km/h (1 Bft)
21.05.2008 05:00 9.9 C 75 % 1011.4 hPa 0.0 l/m 0.8 km/h (0 Bft) O 0.00 h 5 W/m 5.6 C 9.9 C 2.5 km/h (1 Bft)
21.05.2008 06:00 10.0 C 76 % 1011.8 hPa 0.0 l/m 1.1 km/h (1 Bft) N-NO 0.00 h 11 W/m 5.9 C 10.0 C 3.4 km/h (1 Bft)
21.05.2008 07:00 10.2 C 75 % 1012.0 hPa 0.0 l/m 1.7 km/h (1 Bft) N-NO 0.00 h 21 W/m 6.0 C 10.2 C 4.4 km/h (1 Bft)
21.05.2008 08:00 10.4 C 76 % 1012.3 hPa 0.0 l/m 1.8 km/h (1 Bft) NO 0.00 h 39 W/m 6.3 C 10.4 C 4.5 km/h (1 Bft)
21.05.2008 09:00 10.6 C 76 % 1012.7 hPa 0.0 l/m 2.5 km/h (1 Bft) N-NO 0.00 h 103 W/m 6.6 C 10.6 C 6.1 km/h (2 Bft)
21.05.2008 10:00 11.2 C 74 % 1012.9 hPa 0.0 l/m 2.7 km/h (1 Bft) O-NO 0.00 h 150 W/m 6.8 C 11.2 C 6.3 km/h (2 Bft)
21.05.2008 11:00 11.5 C 73 % 1012.9 hPa 0.0 l/m 3.1 km/h (1 Bft) O-SO 0.00 h 190 W/m 6.8 C 11.5 C 5.8 km/h (2 Bft)
21.05.2008 12:00 12.2 C 70 % 1012.9 hPa 0.0 l/m 2.3 km/h (1 Bft) NO 0.00 h 192 W/m 6.9 C 12.2 C 5.3 km/h (1 Bft)
21.05.2008 13:00 12.4 C 70 % 1013.0 hPa 0.0 l/m 1.9 km/h (1 Bft) O 0.00 h 147 W/m 7.1 C 12.4 C 4.4 km/h (1 Bft)
21.05.2008 14:00 12.7 C 69 % 1013.1 hPa 0.0 l/m 3.8 km/h (1 Bft) O-SO 0.00 h 242 W/m 7.1 C 12.7 C 6.8 km/h (2 Bft)
21.05.2008 15:00 13.1 C 68 % 1013.0 hPa 0.0 l/m 2.8 km/h (1 Bft) O-SO 0.07 h 200 W/m 7.4 C 13.1 C 5.1 km/h (1 Bft)
21.05.2008 16:00 13.0 C 69 % 1013.1 hPa 0.0 l/m 2.4 km/h (1 Bft) O 0.00 h 129 W/m 7.4 C 13.0 C 5.2 km/h (1 Bft)
21.05.2008 17:00 13.1 C 69 % 1013.1 hPa 0.0 l/m 1.9 km/h (1 Bft) NO 0.00 h 92 W/m 7.6 C 13.1 C 5.1 km/h (1 Bft)
21.05.2008 18:00 12.7 C 71 % 1013.2 hPa 0.0 l/m 2.6 km/h (1 Bft) NO 0.00 h 42 W/m 7.6 C 12.7 C 5.9 km/h (2 Bft)
21.05.2008 19:00 12.4 C 73 % 1013.6 hPa 0.0 l/m 3.1 km/h (1 Bft) N-NO 0.00 h 21 W/m 7.7 C 12.4 C 6.8 km/h (2 Bft)
21.05.2008 20:00 11.9 C 76 % 1013.9 hPa 0.0 l/m 2.3 km/h (1 Bft) N-NO 0.00 h 6 W/m 7.9 C 11.9 C 5.4 km/h (1 Bft)
21.05.2008 21:00 11.2 C 83 % 1014.1 hPa 0.0 l/m 1.8 km/h (1 Bft) N-NO 0.00 h 0 W/m 8.4 C 11.2 C 4.3 km/h (1 Bft)
21.05.2008 22:00 10.9 C 85 % 1014.3 hPa 0.0 l/m 0.1 km/h (0 Bft) NO 0.00 h 0 W/m 8.4 C 10.9 C 1.0 km/h (0 Bft)
21.05.2008 23:00 10.8 C 84 % 1014.1 hPa 0.0 l/m 0.0 km/h (0 Bft) N 0.00 h 0 W/m 8.2 C 10.8 C 0.3 km/h (0 Bft)
22.05.2008 00:00 10.8 C 84 % 1013.9 hPa 0.0 l/m 0.3 km/h (0 Bft) O-NO 0.00 h 0 W/m 8.2 C 10.8 C 1.5 km/h (1 Bft)
22.05.2008 01:00 10.7 C 84 % 1013.6 hPa 0.0 l/m 0.0 km/h (0 Bft) N 0.00 h 0 W/m 8.2 C 10.7 C 0.1 km/h (0 Bft)
22.05.2008 02:00 10.7 C 84 % 1013.3 hPa 0.0 l/m 0.0 km/h (0 Bft) O-NO 0.00 h 0 W/m 8.1 C 10.7 C 0.3 km/h (0 Bft)
22.05.2008 03:00 10.7 C 84 % 1012.9 hPa 0.0 l/m 0.2 km/h (0 Bft) N 0.00 h 0 W/m 8.2 C 10.7 C 0.7 km/h (0 Bft)
22.05.2008 04:00 10.6 C 85 % 1012.9 hPa 0.0 l/m 0.2 km/h (0 Bft) NO 0.00 h 0 W/m 8.1 C 10.6 C 1.1 km/h (1 Bft)
22.05.2008 05:00 10.6 C 85 % 1012.9 hPa 0.0 l/m 0.1 km/h (0 Bft) O-NO 0.00 h 0 W/m 8.2 C 10.6 C 0.3 km/h (0 Bft)
22.05.2008 06:00 10.6 C 86 % 1013.2 hPa 0.0 l/m 0.1 km/h (0 Bft) O-NO 0.00 h 17 W/m 8.4 C 10.6 C 1.0 km/h (0 Bft)
22.05.2008 07:00 10.9 C 86 % 1013.4 hPa 0.0 l/m 0.2 km/h (0 Bft) O-NO 0.00 h 51 W/m 8.6 C 10.9 C 1.0 km/h (0 Bft)
22.05.2008 08:00 11.6 C 84 % 1013.5 hPa 0.0 l/m 0.4 km/h (0 Bft) N-NO 0.00 h 123 W/m 9.0 C 11.6 C 1.5 km/h (1 Bft)
22.05.2008 09:00 12.4 C 81 % 1013.6 hPa 0.0 l/m 0.3 km/h (0 Bft) N-NO 0.00 h 158 W/m 9.3 C 12.4 C 1.8 km/h (1 Bft)
22.05.2008 10:00 12.8 C 80 % 1013.8 hPa 0.0 l/m 1.1 km/h (0 Bft) O-SO 0.00 h 199 W/m 9.4 C 12.8 C 3.3 km/h (1 Bft)
22.05.2008 11:00 14.0 C 75 % 1013.9 hPa 0.0 l/m 2.7 km/h (1 Bft) SO 0.45 h 461 W/m 9.6 C 14.0 C 5.3 km/h (1 Bft)
22.05.2008 12:00 15.4 C 70 % 1013.6 hPa 0.0 l/m 3.0 km/h (1 Bft) O-SO 0.60 h 513 W/m 10.0 C 15.4 C 5.8 km/h (2 Bft)
22.05.2008 13:00 15.7 C 69 % 1013.4 hPa 0.0 l/m 2.1 km/h (1 Bft) N-NW 0.00 h 319 W/m 9.9 C 15.7 C 4.1 km/h (1 Bft)
22.05.2008 14:00 16.0 C 68 % 1013.2 hPa 0.0 l/m 3.9 km/h (1 Bft) N-NW 0.00 h 331 W/m 10.1 C 16.0 C 6.2 km/h (2 Bft)
22.05.2008 15:00 16.1 C 67 % 1013.2 hPa 0.0 l/m 4.1 km/h (1 Bft) NW 0.15 h 312 W/m 10.0 C 16.1 C 6.8 km/h (2 Bft)
22.05.2008 16:00 17.9 C 60 % 1013.2 hPa 0.0 l/m 3.4 km/h (1 Bft) N 0.93 h 551 W/m 10.0 C 17.9 C 5.9 km/h (2 Bft)
22.05.2008 17:00 17.7 C 58 % 1013.1 hPa 0.0 l/m 2.1 km/h (1 Bft) O 0.48 h 338 W/m 9.3 C 17.7 C 4.4 km/h (1 Bft)
22.05.2008 18:00 16.8 C 62 % 1013.2 hPa 0.0 l/m 1.9 km/h (1 Bft) O-SO 0.00 h 129 W/m 9.4 C 16.8 C 4.3 km/h (1 Bft)
22.05.2008 19:00 16.4 C 62 % 1013.2 hPa 0.0 l/m 0.5 km/h (0 Bft) NO 0.00 h 55 W/m 9.2 C 16.4 C 2.0 km/h (1 Bft)
22.05.2008 20:00 15.9 C 67 % 1013.5 hPa 0.0 l/m 0.5 km/h (0 Bft) NO 0.00 h 6 W/m 9.7 C 15.9 C 1.2 km/h (1 Bft)
22.05.2008 21:00 15.2 C 71 % 1013.8 hPa 0.0 l/m 0.2 km/h (0 Bft) O-SO 0.00 h 0 W/m 9.9 C 15.2 C 1.4 km/h (1 Bft)
22.05.2008 22:00 14.6 C 74 % 1014.3 hPa 0.0 l/m 0.3 km/h (0 Bft) O-NO 0.00 h 0 W/m 10.1 C 14.6 C 1.1 km/h (1 Bft)
22.05.2008 23:00 14.0 C 79 % 1014.2 hPa 0.0 l/m 1.0 km/h (0 Bft) O 0.00 h 0 W/m 10.3 C 14.0 C 2.1 km/h (1 Bft)
23.05.2008 00:00 13.2 C 81 % 1013.8 hPa 0.0 l/m 0.1 km/h (0 Bft) S 0.00 h 0 W/m 10.0 C 13.2 C 0.7 km/h (0 Bft)
23.05.2008 01:00 12.0 C 84 % 1013.7 hPa 0.0 l/m 0.1 km/h (0 Bft) S 0.00 h 0 W/m 9.4 C 12.0 C 0.9 km/h (0 Bft)
23.05.2008 02:00 10.7 C 88 % 1013.6 hPa 0.0 l/m 0.7 km/h (0 Bft) S 0.00 h 0 W/m 8.8 C 10.7 C 1.6 km/h (1 Bft)
23.05.2008 03:00 9.8 C 92 % 1013.3 hPa 0.0 l/m 0.4 km/h (0 Bft) S-SO 0.00 h 0 W/m 8.6 C 9.8 C 0.8 km/h (0 Bft)
23.05.2008 04:00 9.5 C 94 % 1013.2 hPa 0.0 l/m 0.1 km/h (0 Bft) S-SO 0.00 h 0 W/m 8.5 C 9.5 C 0.2 km/h (0 Bft)
23.05.2008 05:00 9.3 C 95 % 1013.2 hPa 0.0 l/m 0.0 km/h (0 Bft) N 0.00 h 7 W/m 8.5 C 9.3 C 0.3 km/h (0 Bft)
23.05.2008 06:00 9.6 C 97 % 1013.2 hPa 0.0 l/m 0.1 km/h (0 Bft) S-SO 0.00 h 34 W/m 9.1 C 9.6 C 0.3 km/h (0 Bft)
23.05.2008 07:00 10.4 C 97 % 1013.2 hPa 0.0 l/m 0.7 km/h (0 Bft) NW 0.00 h 110 W/m 10.0 C 10.4 C 2.2 km/h (1 Bft)
23.05.2008 08:00 12.2 C 94 % 1013.1 hPa 0.0 l/m 0.8 km/h (0 Bft) SO 0.38 h 269 W/m 11.3 C 12.2 C 2.4 km/h (1 Bft)
23.05.2008 09:00 13.6 C 82 % 1013.1 hPa 0.0 l/m 3.9 km/h (1 Bft) O-SO 0.25 h 298 W/m 10.5 C 13.6 C 7.1 km/h (2 Bft)
23.05.2008 10:00 15.2 C 76 % 1012.9 hPa 0.0 l/m 3.9 km/h (1 Bft) O-SO 0.60 h 503 W/m 10.8 C 15.2 C 7.1 km/h (2 Bft)
23.05.2008 11:00 17.1 C 69 % 1012.4 hPa 0.0 l/m 4.8 km/h (1 Bft) O-SO 0.98 h 824 W/m 11.3 C 17.1 C 8.7 km/h (2 Bft)
23.05.2008 12:00 18.5 C 62 % 1012.0 hPa 0.0 l/m 5.6 km/h (1 Bft) O-SO 0.95 h 890 W/m 11.1 C 18.5 C 9.6 km/h (2 Bft)
23.05.2008 13:00 19.9 C 55 % 1011.5 hPa 0.0 l/m 3.8 km/h (1 Bft) O-SO 1.00 h 892 W/m 10.5 C 19.9 C 7.5 km/h (2 Bft)
23.05.2008 14:00 20.9 C 45 % 1010.9 hPa 0.0 l/m 4.3 km/h (1 Bft) SO 0.93 h 829 W/m 8.5 C 20.9 C 7.8 km/h (2 Bft)
23.05.2008 15:00 22.3 C 39 % 1010.4 hPa 0.0 l/m 3.1 km/h (1 Bft) S-SW 1.00 h 813 W/m 7.6 C 22.3 C 5.8 km/h (2 Bft)
23.05.2008 16:00 23.2 C 33 % 1009.6 hPa 0.0 l/m 4.3 km/h (1 Bft) N-NW 1.00 h 669 W/m 6.1 C 23.2 C 7.0 km/h (2 Bft)
23.05.2008 17:00 23.2 C 31 % 1009.1 hPa 0.0 l/m 3.4 km/h (1 Bft) N-NW 1.00 h 514 W/m 5.2 C 23.2 C 5.9 km/h (2 Bft)
23.05.2008 18:00 23.1 C 30 % 1008.9 hPa 0.0 l/m 3.7 km/h (1 Bft) W-NW 1.00 h 330 W/m 4.7 C 23.1 C 5.9 km/h (2 Bft)
23.05.2008 19:00 22.1 C 33 % 1008.9 hPa 0.0 l/m 0.7 km/h (0 Bft) W-NW 0.62 h 147 W/m 5.2 C 22.1 C 2.1 km/h (1 Bft)
23.05.2008 20:00 19.3 C 48 % 1009.0 hPa 0.0 l/m 1.1 km/h (0 Bft) W-NW 0.00 h 31 W/m 8.0 C 19.3 C 2.1 km/h (1 Bft)
23.05.2008 21:00 16.5 C 58 % 1009.4 hPa 0.0 l/m 1.9 km/h (1 Bft) W-NW 0.00 h 0 W/m 8.2 C 16.5 C 2.9 km/h (1 Bft)
23.05.2008 22:00 14.3 C 67 % 1009.7 hPa 0.0 l/m 0.3 km/h (0 Bft) O-SO 0.00 h 0 W/m 8.3 C 14.3 C 1.1 km/h (1 Bft)
23.05.2008 23:00 13.6 C 69 % 1009.7 hPa 0.0 l/m 0.5 km/h (0 Bft) O-SO 0.00 h 0 W/m 8.0 C 13.6 C 1.2 km/h (1 Bft)
24.05.2008 00:00 13.6 C 70 % 1009.8 hPa 0.0 l/m 0.6 km/h (0 Bft) NO 0.00 h 0 W/m 8.2 C 13.6 C 1.6 km/h (1 Bft)
24.05.2008 01:00 12.8 C 76 % 1009.6 hPa 0.0 l/m 0.6 km/h (0 Bft) NO 0.00 h 0 W/m 8.7 C 12.8 C 1.6 km/h (1 Bft)
24.05.2008 02:00 12.4 C 80 % 1009.4 hPa 0.0 l/m 0.4 km/h (0 Bft) NO 0.00 h 0 W/m 8.9 C 12.4 C 0.9 km/h (0 Bft)
24.05.2008 03:00 12.7 C 80 % 1009.3 hPa 0.0 l/m 0.2 km/h (0 Bft) NO 0.00 h 0 W/m 9.3 C 12.7 C 0.6 km/h (0 Bft)
24.05.2008 04:00 12.6 C 83 % 1009.2 hPa 0.0 l/m 0.0 km/h (0 Bft) N 0.00 h 0 W/m 9.9 C 12.6 C 0.4 km/h (0 Bft)
24.05.2008 05:00 12.4 C 85 % 1009.2 hPa 0.0 l/m 0.3 km/h (0 Bft) NO 0.00 h 8 W/m 10.0 C 12.4 C 1.1 km/h (0 Bft)
24.05.2008 06:00 12.4 C 86 % 1009.5 hPa 0.0 l/m 1.0 km/h (0 Bft) NO 0.00 h 31 W/m 10.1 C 12.4 C 2.4 km/h (1 Bft)
24.05.2008 07:00 13.2 C 86 % 1009.3 hPa 0.0 l/m 1.0 km/h (0 Bft) N-NO 0.07 h 102 W/m 10.9 C 13.2 C 2.3 km/h (1 Bft)
24.05.2008 08:00 14.1 C 86 % 1009.4 hPa 0.0 l/m 0.5 km/h (0 Bft) NW 0.08 h 188 W/m 11.8 C 14.1 C 1.5 km/h (1 Bft)
24.05.2008 09:00 15.4 C 81 % 1009.5 hPa 0.2 l/m 1.1 km/h (1 Bft) N-NW 0.00 h 171 W/m 12.2 C 15.4 C 2.9 km/h (1 Bft)
24.05.2008 10:00 16.4 C 79 % 1009.3 hPa 0.0 l/m 1.8 km/h (1 Bft) N-NW 0.47 h 428 W/m 12.8 C 16.4 C 3.8 km/h (1 Bft)
24.05.2008 11:00 18.2 C 70 % 1008.9 hPa 0.0 l/m 1.7 km/h (1 Bft) W-NW 0.37 h 386 W/m 12.7 C 18.2 C 3.6 km/h (1 Bft)
24.05.2008 12:00 17.7 C 75 % 1009.0 hPa 0.2 l/m 2.5 km/h (1 Bft) N-NW 0.00 h 175 W/m 13.1 C 17.7 C 4.8 km/h (1 Bft)
24.05.2008 13:00 17.7 C 82 % 1008.9 hPa 0.0 l/m 1.4 km/h (1 Bft) N-NW 0.00 h 286 W/m 14.5 C 17.7 C 3.4 km/h (1 Bft)
24.05.2008 14:00 19.0 C 75 % 1008.9 hPa 0.0 l/m 3.7 km/h (1 Bft) N-NW 0.00 h 264 W/m 14.4 C 19.0 C 6.5 km/h (2 Bft)
24.05.2008 15:00 18.7 C 76 % 1009.0 hPa 0.2 l/m 3.2 km/h (1 Bft) N-NW 0.00 h 141 W/m 14.4 C 18.7 C 5.7 km/h (1 Bft)
24.05.2008 16:00 17.9 C 79 % 1008.9 hPa 0.2 l/m 1.5 km/h (1 Bft) O-SO 0.00 h 105 W/m 14.2 C 17.9 C 3.9 km/h (1 Bft)
24.05.2008 17:00 17.4 C 79 % 1008.4 hPa 0.2 l/m 3.5 km/h (1 Bft) N-NO 0.27 h 307 W/m 13.7 C 17.4 C 7.4 km/h (2 Bft)
24.05.2008 18:00 18.3 C 74 % 1008.0 hPa 0.0 l/m 2.1 km/h (1 Bft) NO 0.00 h 138 W/m 13.5 C 18.3 C 5.2 km/h (1 Bft)
24.05.2008 19:00 17.9 C 74 % 1008.0 hPa 0.0 l/m 2.5 km/h (1 Bft) NO 0.00 h 91 W/m 13.1 C 17.9 C 5.8 km/h (2 Bft)
24.05.2008 20:00 17.6 C 73 % 1008.2 hPa 0.0 l/m 2.8 km/h (1 Bft) N-NO 0.05 h 29 W/m 12.7 C 17.6 C 6.2 km/h (2 Bft)
24.05.2008 21:00 16.9 C 76 % 1007.9 hPa 0.0 l/m 3.5 km/h (1 Bft) NO 0.00 h 6 W/m 12.5 C 16.9 C 7.9 km/h (2 Bft)
24.05.2008 22:00 16.3 C 76 % 1008.1 hPa 0.0 l/m 0.6 km/h (0 Bft) NW 0.00 h 0 W/m 12.0 C 16.3 C 2.7 km/h (1 Bft)
24.05.2008 23:00 15.3 C 80 % 1008.2 hPa 0.0 l/m 0.3 km/h (0 Bft) O 0.00 h 0 W/m 11.8 C 15.3 C 1.1 km/h (0 Bft)
25.05.2008 00:00 14.1 C 83 % 1008.5 hPa 0.0 l/m 1.4 km/h (1 Bft) O 0.00 h 0 W/m 11.3 C 14.1 C 2.4 km/h (1 Bft)
25.05.2008 01:00 13.5 C 87 % 1008.8 hPa 0.0 l/m 0.7 km/h (0 Bft) O 0.00 h 0 W/m 11.3 C 13.5 C 1.6 km/h (1 Bft)
25.05.2008 02:00 13.5 C 90 % 1010.0 hPa 0.0 l/m 1.4 km/h (1 Bft) O-SO 0.00 h 0 W/m 11.9 C 13.5 C 3.4 km/h (1 Bft)
25.05.2008 03:00 15.1 C 88 % 1010.9 hPa 0.0 l/m 11.5 km/h (2 Bft) W-NW 0.00 h 0 W/m 13.1 C 15.1 C 18.1 km/h (3 Bft)
25.05.2008 04:00 15.5 C 81 % 1010.9 hPa 0.0 l/m 0.4 km/h (0 Bft) SW 0.00 h 0 W/m 12.2 C 15.5 C 1.2 km/h (1 Bft)
25.05.2008 05:00 14.7 C 88 % 1011.0 hPa 0.2 l/m 1.6 km/h (1 Bft) S-SO 0.00 h 6 W/m 12.7 C 14.7 C 3.5 km/h (1 Bft)
25.05.2008 06:00 14.3 C 92 % 1012.0 hPa 0.0 l/m 1.7 km/h (1 Bft) SO 0.00 h 29 W/m 13.1 C 14.3 C 3.2 km/h (1 Bft)
25.05.2008 07:00 14.7 C 94 % 1012.2 hPa 0.0 l/m 0.3 km/h (0 Bft) O-SO 0.40 h 152 W/m 13.8 C 14.7 C 0.9 km/h (0 Bft)
25.05.2008 08:00 17.0 C 85 % 1012.5 hPa 0.0 l/m 3.3 km/h (1 Bft) NW 0.72 h 319 W/m 14.4 C 17.0 C 5.3 km/h (1 Bft)
25.05.2008 09:00 17.1 C 80 % 1013.5 hPa 0.0 l/m 3.4 km/h (1 Bft) W-NW 0.00 h 150 W/m 13.5 C 17.1 C 5.6 km/h (1 Bft)
25.05.2008 10:00 17.5 C 79 % 1013.5 hPa 0.0 l/m 2.0 km/h (1 Bft) W-NW 0.22 h 315 W/m 13.8 C 17.5 C 4.2 km/h (1 Bft)
25.05.2008 11:00 19.8 C 70 % 1012.8 hPa 0.2 l/m 1.9 km/h (1 Bft) O-SO 0.85 h 519 W/m 14.1 C 19.8 C 4.6 km/h (1 Bft)
25.05.2008 12:00 21.9 C 60 % 1012.2 hPa 0.0 l/m 3.3 km/h (1 Bft) O-SO 0.78 h 695 W/m 13.8 C 21.9 C 6.8 km/h (2 Bft)
25.05.2008 13:00 22.3 C 53 % 1011.5 hPa 0.0 l/m 5.7 km/h (1 Bft) O-SO 0.57 h 526 W/m 12.3 C 22.3 C 10.2 km/h (2 Bft)
25.05.2008 14:00 23.2 C 51 % 1011.4 hPa 0.0 l/m 9.5 km/h (2 Bft) O-SO 0.90 h 721 W/m 12.5 C 23.2 C 15.9 km/h (3 Bft)
25.05.2008 15:00 23.3 C 49 % 1010.6 hPa 0.0 l/m 10.3 km/h (2 Bft) O-SO 0.88 h 603 W/m 11.9 C 23.3 C 17.2 km/h (3 Bft)
25.05.2008 16:00 23.8 C 48 % 1010.1 hPa 0.0 l/m 8.1 km/h (2 Bft) O-SO 0.78 h 531 W/m 12.2 C 23.8 C 14.1 km/h (3 Bft)
25.05.2008 17:00 23.6 C 49 % 1009.7 hPa 0.0 l/m 5.9 km/h (2 Bft) O-SO 0.32 h 297 W/m 12.4 C 23.6 C 11.2 km/h (2 Bft)
25.05.2008 18:00 23.3 C 50 % 1009.6 hPa 0.0 l/m 2.4 km/h (1 Bft) O 0.00 h 134 W/m 12.2 C 23.3 C 5.6 km/h (1 Bft)
25.05.2008 19:00 23.0 C 53 % 1009.3 hPa 0.0 l/m 1.4 km/h (1 Bft) O 0.00 h 54 W/m 12.8 C 23.0 C 3.8 km/h (1 Bft)
25.05.2008 20:00 22.3 C 55 % 1009.4 hPa 0.0 l/m 1.8 km/h (1 Bft) NO 0.00 h 12 W/m 12.6 C 22.3 C 4.6 km/h (1 Bft)
25.05.2008 21:00 21.5 C 57 % 1009.5 hPa 0.0 l/m 1.0 km/h (0 Bft) O-NO 0.00 h 0 W/m 12.6 C 21.5 C 2.8 km/h (1 Bft)
25.05.2008 22:00 20.5 C 61 % 1009.9 hPa 0.0 l/m 0.8 km/h (0 Bft) N-NO 0.00 h 0 W/m 12.7 C 20.5 C 2.6 km/h (1 Bft)
25.05.2008 23:00 19.5 C 65 % 1009.6 hPa 0.0 l/m 0.5 km/h (0 Bft) O-NO 0.00 h 0 W/m 12.7 C 19.5 C 1.9 km/h (1 Bft)
Min-Datum _ 23.05.08 23.05.08 20.05.08 - 19.05.08 - - - 23.05.08 23.05.08 19.05.08
_ Min-Zeit 05:00 17:20 06:00 - 00:00 - - - 17:29 05:00 00:00
Minimum _ 9.2 C 27 % 1007.0 hPa - 0.0 km/h (0 Bft) - - - 3.1 C 9.2 C 0.0 km/h (0 Bft)
Max-Datum _ 25.05.08 19.05.08 21.05.08 19.05.08 25.05.08 - 19.05.08 20.05.08 25.05.08 25.05.08 25.05.08
_ Max-Zeit 16:37 04:24 22:15 00:11 03:22 - 09:57 12:15 12:12 16:37 03:35
Maximum _ 24.3 C 100 % 1014.3 hPa 1.0 l/m 24.3 km/h
W-NW (4 Bft)
- 0.02 h 1051 W/m 15.3 C 24.3 C 36.5 km/h
W-NW (5 Bft)
Durchschnitt _ 14.7 C 74 % 1010.7 hPa #3.2 l/m 2.6 km/h (1 Bft) O-SO #24:29 h 237 W/m 9.7 C 14.6 C 5.3 km/h (1 Bft)
© Kaiko 2008